To NAV CANADA Home Page Login to a new session Search on AWWS site Feedback and Comments Disclaimer Vers la page française équivalente Tips FAQ What's new on the site To the Forecasts and Observations / NOTAM section To "File a Flight Plan" website Publications and other links Update of the User's profile FIC Telephone Numbers My Weather Data Folder Route Weather Data Regional Weather Data Local Weather Data To the Forecasts and Observations / NOTAM section
Request Generated 02/24/2017 at 03:36:40 UTC . Weather information available at that time is displayed.

METAR/TAF

TORONTO/BUTTONVILLE MUNICIPAL/ON    

SPECI CYKZ 240323Z 01006KT 15SM SCT010 BKN180 04/02 A2986 RMK SC3AC3
SLP116=
METAR CYKZ 240300Z 35008KT 15SM BKN009 04/02 A2987 RMK SC7 SLP118=
METAR CYKZ 240200Z 35008G15KT 15SM BKN009 05/03 A2986 RMK SC7 SLP117=
SPECI CYKZ 240152Z 35009KT 15SM BKN009 BKN160 BKN200 05/03 A2985 RMK
SC6AC1CI1 AC TR SLP115=
SPECI CYKZ 240142Z 34011KT 15SM BKN011 BKN200 05/03 A2985 RMK SC5CI1
SLP115=
METAR CYKZ 240100Z 32008KT 15SM FEW180 FEW230 06/03 A2984 RMK AC1CI1
SLP109=

TAF AMD CYKZ 240205Z 2402/2412 35010KT P6SM BKN009 TEMPO 2402/2405
SCT009
FM240500 01008KT P6SM SCT005 BKN100 TEMPO 2405/2408 4SM BR BKN005
OVC100
FM240800 06008KT 2SM -SHRA BR BKN004 OVC020 TEMPO 2408/2412 6SM
-SHRA BR SCT005 OVC010 PROB30 2410/2412 1SM TSRA BR OVC003
RMK NXT FCST BY 240600Z=
Your time UTC time
Weather data provided by Environment Canada and NAV CANADA